sensor_id;sensor_type;location;lat;lon;timestamp;P1;durP1;ratioP1;P2;durP2;ratioP2
36599;SDS011;35385;55.668;37.508;2022-12-29T00:00:29;2.70;;;1.60;;
36599;SDS011;35385;55.668;37.508;2022-12-29T00:01:30;5.17;;;1.13;;
36599;SDS011;35385;55.668;37.508;2022-12-29T00:02:31;5.28;;;1.48;;
36599;SDS011;35385;55.668;37.508;2022-12-29T00:03:31;2.50;;;1.10;;
36599;SDS011;35385;55.668;37.508;2022-12-29T00:04:32;3.73;;;1.50;;
36599;SDS011;35385;55.668;37.508;2022-12-29T00:05:32;5.57;;;1.57;;
36599;SDS011;35385;55.668;37.508;2022-12-29T00:06:33;2.43;;;1.27;;
36599;SDS011;35385;55.668;37.508;2022-12-29T00:07:33;3.30;;;1.47;;
36599;SDS011;35385;55.668;37.508;2022-12-29T00:08:34;4.40;;;1.50;;
36599;SDS011;35385;55.668;37.508;2022-12-29T00:09:41;4.97;;;1.33;;
36599;SDS011;35385;55.668;37.508;2022-12-29T00:10:41;4.73;;;1.20;;
36599;SDS011;35385;55.668;37.508;2022-12-29T00:11:42;2.93;;;1.33;;
36599;SDS011;35385;55.668;37.508;2022-12-29T00:12:43;4.57;;;1.38;;
36599;SDS011;35385;55.668;37.508;2022-12-29T00:14:02;4.50;;;1.50;;
36599;SDS011;35385;55.668;37.508;2022-12-29T00:15:21;5.35;;;1.55;;
36599;SDS011;35385;55.668;37.508;2022-12-29T00:16:37;5.72;;;1.75;;
36599;SDS011;35385;55.668;37.508;2022-12-29T00:17:40;5.60;;;1.48;;
36599;SDS011;35385;55.668;37.508;2022-12-29T00:18:41;3.70;;;1.23;;
36599;SDS011;35385;55.668;37.508;2022-12-29T00:19:41;6.30;;;1.97;;
36599;SDS011;35385;55.668;37.508;2022-12-29T00:21:00;2.15;;;0.90;;
36599;SDS011;35385;55.668;37.508;2022-12-29T00:22:19;3.50;;;1.65;;
36599;SDS011;35385;55.668;37.508;2022-12-29T00:23:38;6.25;;;0.98;;
36599;SDS011;35385;55.668;37.508;2022-12-29T00:24:58;3.63;;;1.13;;
36599;SDS011;35385;55.668;37.508;2022-12-29T00:26:02;4.35;;;1.42;;
36599;SDS011;35385;55.668;37.508;2022-12-29T00:27:22;4.30;;;1.42;;
36599;SDS011;35385;55.668;37.508;2022-12-29T00:28:41;5.40;;;1.30;;
36599;SDS011;35385;55.668;37.508;2022-12-29T00:30:00;4.40;;;1.33;;
36599;SDS011;35385;55.668;37.508;2022-12-29T00:31:20;1.80;;;1.08;;
36599;SDS011;35385;55.668;37.508;2022-12-29T00:32:39;3.58;;;1.35;;
36599;SDS011;35385;55.668;37.508;2022-12-29T00:33:58;5.60;;;1.38;;
36599;SDS011;35385;55.668;37.508;2022-12-29T00:35:20;6.25;;;1.30;;
36599;SDS011;35385;55.668;37.508;2022-12-29T00:36:24;3.60;;;1.40;;
36599;SDS011;35385;55.668;37.508;2022-12-29T00:37:29;6.40;;;1.48;;
36599;SDS011;35385;55.668;37.508;2022-12-29T00:38:53;5.78;;;1.48;;
36599;SDS011;35385;55.668;37.508;2022-12-29T00:40:16;7.18;;;1.70;;
36599;SDS011;35385;55.668;37.508;2022-12-29T00:41:35;4.65;;;1.40;;
36599;SDS011;35385;55.668;37.508;2022-12-29T00:42:54;4.07;;;1.50;;
36599;SDS011;35385;55.668;37.508;2022-12-29T00:44:13;5.50;;;1.55;;
36599;SDS011;35385;55.668;37.508;2022-12-29T00:45:14;3.20;;;1.40;;
36599;SDS011;35385;55.668;37.508;2022-12-29T00:46:14;6.03;;;1.50;;
36599;SDS011;35385;55.668;37.508;2022-12-29T00:47:15;4.60;;;1.33;;
36599;SDS011;35385;55.668;37.508;2022-12-29T00:48:16;3.73;;;1.60;;
36599;SDS011;35385;55.668;37.508;2022-12-29T00:49:36;5.78;;;1.70;;
36599;SDS011;35385;55.668;37.508;2022-12-29T00:50:37;7.57;;;2.10;;
36599;SDS011;35385;55.668;37.508;2022-12-29T00:51:37;4.23;;;1.27;;
36599;SDS011;35385;55.668;37.508;2022-12-29T00:52:38;8.67;;;1.63;;
36599;SDS011;35385;55.668;37.508;2022-12-29T00:53:38;6.83;;;1.60;;
36599;SDS011;35385;55.668;37.508;2022-12-29T00:54:39;2.90;;;1.50;;
36599;SDS011;35385;55.668;37.508;2022-12-29T00:55:41;5.45;;;1.48;;
36599;SDS011;35385;55.668;37.508;2022-12-29T00:56:41;8.03;;;2.10;;
36599;SDS011;35385;55.668;37.508;2022-12-29T00:57:42;6.73;;;1.80;;
36599;SDS011;35385;55.668;37.508;2022-12-29T00:58:42;6.07;;;1.57;;
36599;SDS011;35385;55.668;37.508;2022-12-29T00:59:43;6.70;;;1.43;;
36599;SDS011;35385;55.668;37.508;2022-12-29T01:00:43;4.60;;;2.07;;
36599;SDS011;35385;55.668;37.508;2022-12-29T01:01:44;8.50;;;4.60;;
36599;SDS011;35385;55.668;37.508;2022-12-29T01:03:46;11.15;;;4.40;;
36599;SDS011;35385;55.668;37.508;2022-12-29T01:04:46;6.10;;;1.90;;
36599;SDS011;35385;55.668;37.508;2022-12-29T01:05:47;3.37;;;1.30;;
36599;SDS011;35385;55.668;37.508;2022-12-29T01:06:47;6.27;;;1.47;;
36599;SDS011;35385;55.668;37.508;2022-12-29T01:07:49;6.25;;;1.83;;
36599;SDS011;35385;55.668;37.508;2022-12-29T01:08:50;4.40;;;1.50;;
36599;SDS011;35385;55.668;37.508;2022-12-29T01:10:11;4.35;;;1.40;;
36599;SDS011;35385;55.668;37.508;2022-12-29T01:11:13;5.60;;;1.80;;
36599;SDS011;35385;55.668;37.508;2022-12-29T01:12:13;6.27;;;1.50;;
36599;SDS011;35385;55.668;37.508;2022-12-29T01:13:14;5.03;;;1.37;;
36599;SDS011;35385;55.668;37.508;2022-12-29T01:14:14;6.47;;;1.80;;
36599;SDS011;35385;55.668;37.508;2022-12-29T01:15:15;6.30;;;1.58;;
36599;SDS011;35385;55.668;37.508;2022-12-29T01:16:16;6.50;;;2.17;;
36599;SDS011;35385;55.668;37.508;2022-12-29T01:17:16;6.60;;;1.40;;
36599;SDS011;35385;55.668;37.508;2022-12-29T01:18:17;4.37;;;1.63;;
36599;SDS011;35385;55.668;37.508;2022-12-29T01:19:18;5.37;;;1.77;;
36599;SDS011;35385;55.668;37.508;2022-12-29T01:20:18;4.53;;;1.67;;
36599;SDS011;35385;55.668;37.508;2022-12-29T01:21:19;6.30;;;1.83;;
36599;SDS011;35385;55.668;37.508;2022-12-29T01:22:19;7.17;;;2.07;;
36599;SDS011;35385;55.668;37.508;2022-12-29T01:23:20;7.60;;;1.87;;
36599;SDS011;35385;55.668;37.508;2022-12-29T01:24:20;4.43;;;1.63;;
36599;SDS011;35385;55.668;37.508;2022-12-29T01:25:21;4.53;;;1.67;;
36599;SDS011;35385;55.668;37.508;2022-12-29T01:26:21;5.47;;;1.80;;
36599;SDS011;35385;55.668;37.508;2022-12-29T01:27:22;8.07;;;1.73;;
36599;SDS011;35385;55.668;37.508;2022-12-29T01:28:23;5.20;;;1.60;;
36599;SDS011;35385;55.668;37.508;2022-12-29T01:29:24;4.80;;;1.88;;
36599;SDS011;35385;55.668;37.508;2022-12-29T01:30:24;4.67;;;1.83;;
36599;SDS011;35385;55.668;37.508;2022-12-29T01:31:25;8.73;;;3.00;;
36599;SDS011;35385;55.668;37.508;2022-12-29T01:32:25;8.40;;;2.33;;
36599;SDS011;35385;55.668;37.508;2022-12-29T01:33:26;5.90;;;2.03;;
36599;SDS011;35385;55.668;37.508;2022-12-29T01:34:26;5.97;;;2.23;;
36599;SDS011;35385;55.668;37.508;2022-12-29T01:35:27;6.97;;;1.60;;
36599;SDS011;35385;55.668;37.508;2022-12-29T01:36:28;7.13;;;1.63;;
36599;SDS011;35385;55.668;37.508;2022-12-29T01:37:29;6.57;;;1.67;;
36599;SDS011;35385;55.668;37.508;2022-12-29T01:38:29;4.87;;;2.23;;
36599;SDS011;35385;55.668;37.508;2022-12-29T01:39:30;6.55;;;1.77;;
36599;SDS011;35385;55.668;37.508;2022-12-29T01:40:30;6.57;;;1.87;;
36599;SDS011;35385;55.668;37.508;2022-12-29T01:41:31;8.53;;;1.90;;
36599;SDS011;35385;55.668;37.508;2022-12-29T01:42:32;6.97;;;1.90;;
36599;SDS011;35385;55.668;37.508;2022-12-29T01:45:51;9.80;;;1.67;;
36599;SDS011;35385;55.668;37.508;2022-12-29T01:46:54;8.38;;;1.80;;
36599;SDS011;35385;55.668;37.508;2022-12-29T01:47:59;10.73;;;2.60;;
36599;SDS011;35385;55.668;37.508;2022-12-29T01:51:22;13.33;;;3.83;;
36599;SDS011;35385;55.668;37.508;2022-12-29T01:52:26;8.38;;;2.13;;
36599;SDS011;35385;55.668;37.508;2022-12-29T01:53:30;6.03;;;2.13;;
36599;SDS011;35385;55.668;37.508;2022-12-29T01:54:39;7.97;;;2.20;;
36599;SDS011;35385;55.668;37.508;2022-12-29T01:55:44;10.00;;;1.70;;
36599;SDS011;35385;55.668;37.508;2022-12-29T01:56:50;6.68;;;1.85;;
36599;SDS011;35385;55.668;37.508;2022-12-29T01:57:52;7.38;;;2.00;;
36599;SDS011;35385;55.668;37.508;2022-12-29T01:58:56;8.27;;;2.00;;
36599;SDS011;35385;55.668;37.508;2022-12-29T02:00:09;4.22;;;1.70;;
36599;SDS011;35385;55.668;37.508;2022-12-29T02:01:12;6.95;;;2.17;;
36599;SDS011;35385;55.668;37.508;2022-12-29T02:02:14;6.53;;;2.00;;
36599;SDS011;35385;55.668;37.508;2022-12-29T02:03:15;12.15;;;2.17;;
36599;SDS011;35385;55.668;37.508;2022-12-29T02:04:19;11.15;;;2.45;;
36599;SDS011;35385;55.668;37.508;2022-12-29T02:05:38;5.43;;;2.00;;
36599;SDS011;35385;55.668;37.508;2022-12-29T02:06:46;10.35;;;2.30;;
36599;SDS011;35385;55.668;37.508;2022-12-29T02:07:51;7.72;;;2.17;;
36599;SDS011;35385;55.668;37.508;2022-12-29T02:08:53;7.35;;;2.15;;
36599;SDS011;35385;55.668;37.508;2022-12-29T02:09:55;5.22;;;2.47;;
36599;SDS011;35385;55.668;37.508;2022-12-29T02:10:57;7.75;;;2.13;;
36599;SDS011;35385;55.668;37.508;2022-12-29T02:11:59;7.65;;;1.83;;
36599;SDS011;35385;55.668;37.508;2022-12-29T02:13:00;8.15;;;3.90;;
36599;SDS011;35385;55.668;37.508;2022-12-29T02:14:01;5.53;;;1.90;;
36599;SDS011;35385;55.668;37.508;2022-12-29T02:15:05;6.95;;;1.90;;
36599;SDS011;35385;55.668;37.508;2022-12-29T02:33:23;6.97;;;2.22;;
36599;SDS011;35385;55.668;37.508;2022-12-29T02:35:48;11.40;;;2.40;;
36599;SDS011;35385;55.668;37.508;2022-12-29T02:37:38;10.70;;;2.60;;
36599;SDS011;35385;55.668;37.508;2022-12-29T02:44:24;6.97;;;2.10;;
36599;SDS011;35385;55.668;37.508;2022-12-29T02:47:05;8.52;;;1.85;;
36599;SDS011;35385;55.668;37.508;2022-12-29T02:48:30;7.25;;;2.00;;
36599;SDS011;35385;55.668;37.508;2022-12-29T02:49:42;6.38;;;1.95;;
36599;SDS011;35385;55.668;37.508;2022-12-29T02:50:50;9.40;;;2.13;;
36599;SDS011;35385;55.668;37.508;2022-12-29T02:52:04;9.43;;;3.05;;
36599;SDS011;35385;55.668;37.508;2022-12-29T02:53:13;10.27;;;2.20;;
36599;SDS011;35385;55.668;37.508;2022-12-29T02:54:37;7.80;;;2.30;;
36599;SDS011;35385;55.668;37.508;2022-12-29T02:55:47;10.07;;;2.85;;
36599;SDS011;35385;55.668;37.508;2022-12-29T02:56:51;9.68;;;2.35;;
36599;SDS011;35385;55.668;37.508;2022-12-29T02:59:11;13.30;;;2.72;;
36599;SDS011;35385;55.668;37.508;2022-12-29T03:00:14;6.20;;;2.38;;
36599;SDS011;35385;55.668;37.508;2022-12-29T03:01:29;8.50;;;2.95;;
36599;SDS011;35385;55.668;37.508;2022-12-29T03:03:55;7.13;;;2.20;;
36599;SDS011;35385;55.668;37.508;2022-12-29T03:05:15;6.32;;;2.22;;
36599;SDS011;35385;55.668;37.508;2022-12-29T03:10:54;6.88;;;2.30;;
36599;SDS011;35385;55.668;37.508;2022-12-29T03:12:01;8.88;;;2.03;;
36599;SDS011;35385;55.668;37.508;2022-12-29T03:15:02;7.70;;;2.30;;
36599;SDS011;35385;55.668;37.508;2022-12-29T03:16:31;6.90;;;2.17;;
36599;SDS011;35385;55.668;37.508;2022-12-29T03:19:02;9.85;;;2.13;;
36599;SDS011;35385;55.668;37.508;2022-12-29T03:20:08;8.00;;;1.88;;
36599;SDS011;35385;55.668;37.508;2022-12-29T03:21:16;5.40;;;2.42;;
36599;SDS011;35385;55.668;37.508;2022-12-29T03:22:57;8.85;;;2.45;;
36599;SDS011;35385;55.668;37.508;2022-12-29T03:24:00;5.93;;;2.60;;
36599;SDS011;35385;55.668;37.508;2022-12-29T03:26:06;8.25;;;2.80;;
36599;SDS011;35385;55.668;37.508;2022-12-29T03:27:12;9.88;;;2.55;;
36599;SDS011;35385;55.668;37.508;2022-12-29T03:28:21;8.32;;;3.55;;
36599;SDS011;35385;55.668;37.508;2022-12-29T03:29:26;11.45;;;2.85;;
36599;SDS011;35385;55.668;37.508;2022-12-29T03:30:29;9.25;;;2.10;;
36599;SDS011;35385;55.668;37.508;2022-12-29T03:31:32;11.75;;;2.20;;
36599;SDS011;35385;55.668;37.508;2022-12-29T03:32:37;13.27;;;2.43;;
36599;SDS011;35385;55.668;37.508;2022-12-29T03:33:42;10.52;;;2.00;;
36599;SDS011;35385;55.668;37.508;2022-12-29T03:34:45;7.72;;;2.20;;
36599;SDS011;35385;55.668;37.508;2022-12-29T03:35:48;12.50;;;2.42;;
36599;SDS011;35385;55.668;37.508;2022-12-29T03:36:52;8.07;;;1.92;;
36599;SDS011;35385;55.668;37.508;2022-12-29T03:38:17;7.70;;;2.03;;
36599;SDS011;35385;55.668;37.508;2022-12-29T03:40:24;12.73;;;2.15;;
36599;SDS011;35385;55.668;37.508;2022-12-29T03:41:27;11.75;;;3.22;;
36599;SDS011;35385;55.668;37.508;2022-12-29T03:42:31;7.88;;;2.25;;
36599;SDS011;35385;55.668;37.508;2022-12-29T03:43:34;5.40;;;2.10;;
36599;SDS011;35385;55.668;37.508;2022-12-29T03:44:36;5.93;;;2.23;;
36599;SDS011;35385;55.668;37.508;2022-12-29T03:45:39;7.05;;;1.70;;
36599;SDS011;35385;55.668;37.508;2022-12-29T03:46:39;7.33;;;2.23;;
36599;SDS011;35385;55.668;37.508;2022-12-29T03:47:40;9.97;;;2.13;;
36599;SDS011;35385;55.668;37.508;2022-12-29T03:48:40;9.07;;;2.47;;
36599;SDS011;35385;55.668;37.508;2022-12-29T03:49:41;6.93;;;2.00;;
36599;SDS011;35385;55.668;37.508;2022-12-29T03:50:41;8.10;;;2.23;;
36599;SDS011;35385;55.668;37.508;2022-12-29T03:51:42;6.47;;;1.93;;
36599;SDS011;35385;55.668;37.508;2022-12-29T03:52:43;11.50;;;3.72;;
36599;SDS011;35385;55.668;37.508;2022-12-29T03:53:43;9.27;;;2.53;;
36599;SDS011;35385;55.668;37.508;2022-12-29T03:54:44;7.93;;;1.90;;
36599;SDS011;35385;55.668;37.508;2022-12-29T03:55:45;6.90;;;2.17;;
36599;SDS011;35385;55.668;37.508;2022-12-29T03:56:45;8.70;;;2.63;;
36599;SDS011;35385;55.668;37.508;2022-12-29T03:57:46;6.57;;;2.10;;
36599;SDS011;35385;55.668;37.508;2022-12-29T03:58:46;8.53;;;2.00;;
36599;SDS011;35385;55.668;37.508;2022-12-29T03:59:47;7.63;;;2.17;;
36599;SDS011;35385;55.668;37.508;2022-12-29T04:00:47;5.90;;;1.83;;
36599;SDS011;35385;55.668;37.508;2022-12-29T04:01:48;10.23;;;3.50;;
36599;SDS011;35385;55.668;37.508;2022-12-29T04:02:48;9.30;;;2.60;;
36599;SDS011;35385;55.668;37.508;2022-12-29T04:03:49;7.87;;;2.37;;
36599;SDS011;35385;55.668;37.508;2022-12-29T04:04:49;8.80;;;2.10;;
36599;SDS011;35385;55.668;37.508;2022-12-29T04:05:50;7.60;;;2.30;;
36599;SDS011;35385;55.668;37.508;2022-12-29T04:06:50;7.10;;;1.83;;
36599;SDS011;35385;55.668;37.508;2022-12-29T04:07:51;6.43;;;2.17;;
36599;SDS011;35385;55.668;37.508;2022-12-29T04:08:51;7.17;;;2.23;;
36599;SDS011;35385;55.668;37.508;2022-12-29T04:09:52;8.57;;;2.33;;
36599;SDS011;35385;55.668;37.508;2022-12-29T04:10:52;9.50;;;2.03;;
36599;SDS011;35385;55.668;37.508;2022-12-29T04:11:53;9.40;;;2.03;;
36599;SDS011;35385;55.668;37.508;2022-12-29T04:12:53;7.57;;;2.10;;
36599;SDS011;35385;55.668;37.508;2022-12-29T04:13:54;9.47;;;2.23;;
36599;SDS011;35385;55.668;37.508;2022-12-29T04:14:54;4.33;;;2.30;;
36599;SDS011;35385;55.668;37.508;2022-12-29T04:15:55;6.40;;;2.00;;
36599;SDS011;35385;55.668;37.508;2022-12-29T04:16:55;5.97;;;2.10;;
36599;SDS011;35385;55.668;37.508;2022-12-29T04:17:56;8.20;;;2.47;;
36599;SDS011;35385;55.668;37.508;2022-12-29T04:18:56;8.23;;;2.47;;
36599;SDS011;35385;55.668;37.508;2022-12-29T04:19:57;10.90;;;2.43;;
36599;SDS011;35385;55.668;37.508;2022-12-29T04:21:17;8.32;;;2.70;;
36599;SDS011;35385;55.668;37.508;2022-12-29T04:22:18;8.90;;;2.40;;
36599;SDS011;35385;55.668;37.508;2022-12-29T04:23:19;9.97;;;2.30;;
36599;SDS011;35385;55.668;37.508;2022-12-29T04:24:19;7.87;;;2.50;;
36599;SDS011;35385;55.668;37.508;2022-12-29T04:25:20;12.87;;;2.50;;
36599;SDS011;35385;55.668;37.508;2022-12-29T04:26:20;10.07;;;2.20;;
36599;SDS011;35385;55.668;37.508;2022-12-29T04:27:21;7.43;;;2.07;;
36599;SDS011;35385;55.668;37.508;2022-12-29T04:28:21;7.97;;;2.07;;
36599;SDS011;35385;55.668;37.508;2022-12-29T04:29:22;9.37;;;2.40;;
36599;SDS011;35385;55.668;37.508;2022-12-29T04:30:23;10.93;;;2.57;;
36599;SDS011;35385;55.668;37.508;2022-12-29T04:31:23;7.90;;;2.30;;
36599;SDS011;35385;55.668;37.508;2022-12-29T04:32:24;10.07;;;2.47;;
36599;SDS011;35385;55.668;37.508;2022-12-29T04:33:25;5.50;;;2.23;;
36599;SDS011;35385;55.668;37.508;2022-12-29T04:34:25;9.63;;;2.22;;
36599;SDS011;35385;55.668;37.508;2022-12-29T04:35:26;8.73;;;2.40;;
36599;SDS011;35385;55.668;37.508;2022-12-29T04:36:26;8.37;;;2.37;;
36599;SDS011;35385;55.668;37.508;2022-12-29T04:37:27;10.40;;;2.23;;
36599;SDS011;35385;55.668;37.508;2022-12-29T04:38:27;8.23;;;1.97;;
36599;SDS011;35385;55.668;37.508;2022-12-29T04:39:28;7.10;;;1.90;;
36599;SDS011;35385;55.668;37.508;2022-12-29T04:40:29;10.67;;;2.30;;
36599;SDS011;35385;55.668;37.508;2022-12-29T04:41:29;5.87;;;1.97;;
36599;SDS011;35385;55.668;37.508;2022-12-29T04:42:30;4.10;;;1.90;;
36599;SDS011;35385;55.668;37.508;2022-12-29T04:43:30;7.27;;;2.10;;
36599;SDS011;35385;55.668;37.508;2022-12-29T04:44:31;8.10;;;1.90;;
36599;SDS011;35385;55.668;37.508;2022-12-29T04:45:31;5.90;;;2.03;;
36599;SDS011;35385;55.668;37.508;2022-12-29T04:46:32;6.50;;;2.60;;
36599;SDS011;35385;55.668;37.508;2022-12-29T04:47:32;6.07;;;2.60;;
36599;SDS011;35385;55.668;37.508;2022-12-29T04:48:33;8.93;;;2.27;;
36599;SDS011;35385;55.668;37.508;2022-12-29T04:49:33;6.33;;;1.97;;
36599;SDS011;35385;55.668;37.508;2022-12-29T04:50:34;12.07;;;1.93;;
36599;SDS011;35385;55.668;37.508;2022-12-29T04:51:34;7.57;;;2.13;;
36599;SDS011;35385;55.668;37.508;2022-12-29T04:52:35;8.23;;;2.25;;
36599;SDS011;35385;55.668;37.508;2022-12-29T04:53:36;5.73;;;1.97;;
36599;SDS011;35385;55.668;37.508;2022-12-29T04:54:36;13.87;;;2.60;;
36599;SDS011;35385;55.668;37.508;2022-12-29T04:55:37;6.27;;;2.27;;
36599;SDS011;35385;55.668;37.508;2022-12-29T04:56:38;6.68;;;2.08;;
36599;SDS011;35385;55.668;37.508;2022-12-29T04:57:38;2.80;;;1.57;;
36599;SDS011;35385;55.668;37.508;2022-12-29T04:58:39;8.93;;;2.20;;
36599;SDS011;35385;55.668;37.508;2022-12-29T04:59:39;4.13;;;1.90;;
36599;SDS011;35385;55.668;37.508;2022-12-29T05:00:40;9.90;;;2.47;;
36599;SDS011;35385;55.668;37.508;2022-12-29T05:01:40;7.20;;;1.80;;
36599;SDS011;35385;55.668;37.508;2022-12-29T05:02:42;6.80;;;2.38;;
36599;SDS011;35385;55.668;37.508;2022-12-29T05:03:42;8.20;;;2.07;;
36599;SDS011;35385;55.668;37.508;2022-12-29T05:04:43;8.97;;;2.07;;
36599;SDS011;35385;55.668;37.508;2022-12-29T05:05:44;5.90;;;2.00;;
36599;SDS011;35385;55.668;37.508;2022-12-29T05:06:44;8.97;;;2.37;;
36599;SDS011;35385;55.668;37.508;2022-12-29T05:07:45;8.30;;;1.80;;
36599;SDS011;35385;55.668;37.508;2022-12-29T05:08:45;7.33;;;2.27;;
36599;SDS011;35385;55.668;37.508;2022-12-29T05:09:46;7.20;;;1.90;;
36599;SDS011;35385;55.668;37.508;2022-12-29T05:10:46;6.50;;;2.30;;
36599;SDS011;35385;55.668;37.508;2022-12-29T05:11:47;4.57;;;2.08;;
36599;SDS011;35385;55.668;37.508;2022-12-29T05:12:48;7.03;;;2.80;;
36599;SDS011;35385;55.668;37.508;2022-12-29T05:13:48;8.57;;;2.77;;
36599;SDS011;35385;55.668;37.508;2022-12-29T05:14:49;6.10;;;2.33;;
36599;SDS011;35385;55.668;37.508;2022-12-29T05:15:50;9.10;;;2.90;;
36599;SDS011;35385;55.668;37.508;2022-12-29T05:16:52;7.00;;;2.15;;
36599;SDS011;35385;55.668;37.508;2022-12-29T05:17:52;11.50;;;2.40;;
36599;SDS011;35385;55.668;37.508;2022-12-29T05:18:53;8.60;;;2.10;;
36599;SDS011;35385;55.668;37.508;2022-12-29T05:19:53;8.87;;;2.27;;
36599;SDS011;35385;55.668;37.508;2022-12-29T05:20:54;8.53;;;2.23;;
36599;SDS011;35385;55.668;37.508;2022-12-29T05:21:54;10.10;;;3.07;;
36599;SDS011;35385;55.668;37.508;2022-12-29T05:22:55;9.00;;;2.40;;
36599;SDS011;35385;55.668;37.508;2022-12-29T05:23:55;5.97;;;2.40;;
36599;SDS011;35385;55.668;37.508;2022-12-29T05:24:56;6.60;;;2.40;;
36599;SDS011;35385;55.668;37.508;2022-12-29T05:25:56;6.77;;;2.17;;
36599;SDS011;35385;55.668;37.508;2022-12-29T05:26:57;8.93;;;2.57;;
36599;SDS011;35385;55.668;37.508;2022-12-29T05:27:57;13.53;;;3.37;;
36599;SDS011;35385;55.668;37.508;2022-12-29T05:28:58;5.33;;;2.33;;
36599;SDS011;35385;55.668;37.508;2022-12-29T05:29:59;8.70;;;2.53;;
36599;SDS011;35385;55.668;37.508;2022-12-29T05:31:00;5.63;;;2.27;;
36599;SDS011;35385;55.668;37.508;2022-12-29T05:32:00;10.40;;;2.70;;
36599;SDS011;35385;55.668;37.508;2022-12-29T05:33:01;9.93;;;3.10;;
36599;SDS011;35385;55.668;37.508;2022-12-29T05:34:02;14.30;;;4.63;;
36599;SDS011;35385;55.668;37.508;2022-12-29T05:35:03;10.95;;;2.88;;
36599;SDS011;35385;55.668;37.508;2022-12-29T05:36:07;5.82;;;2.60;;
36599;SDS011;35385;55.668;37.508;2022-12-29T05:37:09;5.68;;;2.67;;
36599;SDS011;35385;55.668;37.508;2022-12-29T05:38:09;8.97;;;2.57;;
36599;SDS011;35385;55.668;37.508;2022-12-29T05:39:10;6.33;;;2.50;;
36599;SDS011;35385;55.668;37.508;2022-12-29T05:40:10;12.80;;;2.73;;
36599;SDS011;35385;55.668;37.508;2022-12-29T05:41:13;12.05;;;3.38;;
36599;SDS011;35385;55.668;37.508;2022-12-29T05:42:13;13.03;;;3.00;;
36599;SDS011;35385;55.668;37.508;2022-12-29T05:43:14;11.40;;;3.20;;
36599;SDS011;35385;55.668;37.508;2022-12-29T05:44:14;16.90;;;3.03;;
36599;SDS011;35385;55.668;37.508;2022-12-29T05:45:15;11.00;;;2.93;;
36599;SDS011;35385;55.668;37.508;2022-12-29T05:46:15;10.37;;;3.23;;
36599;SDS011;35385;55.668;37.508;2022-12-29T05:47:16;17.70;;;9.52;;
36599;SDS011;35385;55.668;37.508;2022-12-29T05:48:17;11.80;;;3.60;;
36599;SDS011;35385;55.668;37.508;2022-12-29T05:49:17;8.50;;;3.27;;
36599;SDS011;35385;55.668;37.508;2022-12-29T05:50:18;9.18;;;3.15;;
36599;SDS011;35385;55.668;37.508;2022-12-29T05:51:19;11.93;;;3.10;;
36599;SDS011;35385;55.668;37.508;2022-12-29T05:52:19;8.20;;;3.13;;
36599;SDS011;35385;55.668;37.508;2022-12-29T05:53:20;8.50;;;3.13;;
36599;SDS011;35385;55.668;37.508;2022-12-29T05:54:20;9.63;;;2.80;;
36599;SDS011;35385;55.668;37.508;2022-12-29T05:55:21;11.53;;;4.47;;
36599;SDS011;35385;55.668;37.508;2022-12-29T05:56:21;8.87;;;3.30;;
36599;SDS011;35385;55.668;37.508;2022-12-29T05:57:22;8.77;;;3.97;;
36599;SDS011;35385;55.668;37.508;2022-12-29T05:58:23;7.97;;;3.63;;
36599;SDS011;35385;55.668;37.508;2022-12-29T05:59:23;7.80;;;3.63;;
36599;SDS011;35385;55.668;37.508;2022-12-29T06:00:24;8.87;;;3.37;;
36599;SDS011;35385;55.668;37.508;2022-12-29T06:01:24;16.50;;;4.43;;
36599;SDS011;35385;55.668;37.508;2022-12-29T06:02:25;10.70;;;3.87;;
36599;SDS011;35385;55.668;37.508;2022-12-29T06:03:25;12.07;;;3.77;;
36599;SDS011;35385;55.668;37.508;2022-12-29T06:04:26;9.83;;;3.50;;
36599;SDS011;35385;55.668;37.508;2022-12-29T06:05:26;8.70;;;3.13;;
36599;SDS011;35385;55.668;37.508;2022-12-29T06:06:27;12.83;;;4.40;;
36599;SDS011;35385;55.668;37.508;2022-12-29T06:07:28;8.60;;;3.17;;
36599;SDS011;35385;55.668;37.508;2022-12-29T06:08:28;6.07;;;2.93;;
36599;SDS011;35385;55.668;37.508;2022-12-29T06:09:29;7.93;;;2.53;;
36599;SDS011;35385;55.668;37.508;2022-12-29T06:10:29;10.03;;;3.40;;
36599;SDS011;35385;55.668;37.508;2022-12-29T06:11:30;7.40;;;2.87;;
36599;SDS011;35385;55.668;37.508;2022-12-29T06:12:30;8.50;;;3.30;;
36599;SDS011;35385;55.668;37.508;2022-12-29T06:13:31;8.17;;;2.70;;
36599;SDS011;35385;55.668;37.508;2022-12-29T06:14:32;9.73;;;3.05;;
36599;SDS011;35385;55.668;37.508;2022-12-29T06:15:33;7.53;;;3.07;;
36599;SDS011;35385;55.668;37.508;2022-12-29T06:16:34;9.48;;;3.63;;
36599;SDS011;35385;55.668;37.508;2022-12-29T06:17:34;13.43;;;3.58;;
36599;SDS011;35385;55.668;37.508;2022-12-29T06:18:35;8.20;;;3.43;;
36599;SDS011;35385;55.668;37.508;2022-12-29T06:19:35;12.43;;;3.00;;
36599;SDS011;35385;55.668;37.508;2022-12-29T06:20:36;9.93;;;3.50;;
36599;SDS011;35385;55.668;37.508;2022-12-29T06:21:37;8.63;;;3.50;;
36599;SDS011;35385;55.668;37.508;2022-12-29T06:22:37;9.40;;;3.20;;
36599;SDS011;35385;55.668;37.508;2022-12-29T06:23:38;9.27;;;3.30;;
36599;SDS011;35385;55.668;37.508;2022-12-29T06:24:39;8.37;;;3.20;;
36599;SDS011;35385;55.668;37.508;2022-12-29T06:25:40;6.22;;;3.15;;
36599;SDS011;35385;55.668;37.508;2022-12-29T06:26:40;7.87;;;2.60;;
36599;SDS011;35385;55.668;37.508;2022-12-29T06:27:42;8.52;;;3.28;;
36599;SDS011;35385;55.668;37.508;2022-12-29T06:28:42;8.33;;;2.80;;
36599;SDS011;35385;55.668;37.508;2022-12-29T06:29:43;6.97;;;2.87;;
36599;SDS011;35385;55.668;37.508;2022-12-29T06:30:44;9.83;;;3.40;;
36599;SDS011;35385;55.668;37.508;2022-12-29T06:32:45;12.68;;;2.95;;
36599;SDS011;35385;55.668;37.508;2022-12-29T06:33:46;5.73;;;3.10;;
36599;SDS011;35385;55.668;37.508;2022-12-29T06:34:46;13.33;;;3.40;;
36599;SDS011;35385;55.668;37.508;2022-12-29T06:35:47;12.57;;;3.23;;
36599;SDS011;35385;55.668;37.508;2022-12-29T06:36:48;10.73;;;3.40;;
36599;SDS011;35385;55.668;37.508;2022-12-29T06:37:48;7.80;;;3.03;;
36599;SDS011;35385;55.668;37.508;2022-12-29T06:38:49;6.20;;;2.80;;
36599;SDS011;35385;55.668;37.508;2022-12-29T06:39:52;7.07;;;4.03;;
36599;SDS011;35385;55.668;37.508;2022-12-29T06:40:52;7.07;;;3.43;;
36599;SDS011;35385;55.668;37.508;2022-12-29T06:41:53;15.70;;;7.37;;
36599;SDS011;35385;55.668;37.508;2022-12-29T06:42:54;11.10;;;3.72;;
36599;SDS011;35385;55.668;37.508;2022-12-29T06:43:55;6.45;;;3.40;;
36599;SDS011;35385;55.668;37.508;2022-12-29T06:44:56;8.67;;;3.30;;
36599;SDS011;35385;55.668;37.508;2022-12-29T06:45:58;7.32;;;3.15;;
36599;SDS011;35385;55.668;37.508;2022-12-29T06:46:59;11.63;;;3.23;;
36599;SDS011;35385;55.668;37.508;2022-12-29T06:47:59;13.03;;;3.63;;
36599;SDS011;35385;55.668;37.508;2022-12-29T06:49:00;7.27;;;2.83;;
36599;SDS011;35385;55.668;37.508;2022-12-29T06:50:01;8.87;;;3.67;;
36599;SDS011;35385;55.668;37.508;2022-12-29T06:51:01;7.30;;;3.67;;
36599;SDS011;35385;55.668;37.508;2022-12-29T06:52:02;9.87;;;3.33;;
36599;SDS011;35385;55.668;37.508;2022-12-29T06:53:04;11.25;;;3.60;;
36599;SDS011;35385;55.668;37.508;2022-12-29T06:54:05;9.60;;;3.50;;
36599;SDS011;35385;55.668;37.508;2022-12-29T06:55:05;7.50;;;3.70;;
36599;SDS011;35385;55.668;37.508;2022-12-29T06:56:06;12.88;;;4.50;;
36599;SDS011;35385;55.668;37.508;2022-12-29T06:57:07;11.80;;;4.47;;
36599;SDS011;35385;55.668;37.508;2022-12-29T06:58:07;7.27;;;4.03;;
36599;SDS011;35385;55.668;37.508;2022-12-29T06:59:09;9.63;;;4.50;;
36599;SDS011;35385;55.668;37.508;2022-12-29T07:00:09;9.50;;;4.00;;